Saint Joseph, Missouri
Current Conditions -  °F | °C
As of 8:53 PM on Sunday 23 Nov 2014 (Local Time) from KSTJ Reporting Station
Overcast Overcast  
Wind Chill: 34°   Ceiling: 6500
Heat Index: 42°   Visibility: 10mi
Dew Point: 37°   Wind: 16mph
Humidity: 82%   Direction: 330°NNW
Pressure: 29.48"   Gusts: NA
Location:  39.76°N, 94.82°W
Report Text: KSTJ 240253Z AUTO 33014KT 10SM BKN065 OVC085 06/03 A2948 RMK AO2 PK WND 33029/0155 RAE40 SLP985 P0001 60013 T00560028 50017
Loading
Personal Weather Stations






























Interactive Weather Map New forecast layout! Learn more

10-Day Weather Forecast

Advertisements
Track Severe Weather on mobile